sensor_id;sensor_type;location;lat;lon;timestamp;P1;durP1;ratioP1;P2;durP2;ratioP2
17145;SDS011;8688;54.444;18.444;2022-08-21T00:02:20;12.02;;;10.73;;
17145;SDS011;8688;54.444;18.444;2022-08-21T00:04:52;13.20;;;11.05;;
17145;SDS011;8688;54.444;18.444;2022-08-21T00:07:20;11.40;;;9.95;;
17145;SDS011;8688;54.444;18.444;2022-08-21T00:09:48;14.23;;;10.57;;
17145;SDS011;8688;54.444;18.444;2022-08-21T00:12:17;14.40;;;10.75;;
17145;SDS011;8688;54.444;18.444;2022-08-21T00:14:44;11.80;;;10.45;;
17145;SDS011;8688;54.444;18.444;2022-08-21T00:17:12;11.25;;;10.07;;
17145;SDS011;8688;54.444;18.444;2022-08-21T00:19:39;10.95;;;9.85;;
17145;SDS011;8688;54.444;18.444;2022-08-21T00:22:06;10.75;;;9.45;;
17145;SDS011;8688;54.444;18.444;2022-08-21T00:24:34;10.13;;;8.70;;
17145;SDS011;8688;54.444;18.444;2022-08-21T00:27:01;8.05;;;7.13;;
17145;SDS011;8688;54.444;18.444;2022-08-21T00:29:30;7.32;;;6.25;;
17145;SDS011;8688;54.444;18.444;2022-08-21T00:31:58;5.38;;;4.88;;
17145;SDS011;8688;54.444;18.444;2022-08-21T00:34:25;5.25;;;4.75;;
17145;SDS011;8688;54.444;18.444;2022-08-21T00:36:52;5.88;;;5.28;;
17145;SDS011;8688;54.444;18.444;2022-08-21T00:39:20;5.80;;;5.20;;
17145;SDS011;8688;54.444;18.444;2022-08-21T00:41:47;5.50;;;5.00;;
17145;SDS011;8688;54.444;18.444;2022-08-21T00:44:15;6.13;;;5.40;;
17145;SDS011;8688;54.444;18.444;2022-08-21T00:46:44;5.93;;;5.35;;
17145;SDS011;8688;54.444;18.444;2022-08-21T00:51:58;5.70;;;5.20;;
17145;SDS011;8688;54.444;18.444;2022-08-21T00:54:27;6.68;;;5.55;;
17145;SDS011;8688;54.444;18.444;2022-08-21T00:56:58;5.68;;;4.97;;
17145;SDS011;8688;54.444;18.444;2022-08-21T00:59:29;5.80;;;5.20;;
17145;SDS011;8688;54.444;18.444;2022-08-21T01:02:02;4.95;;;4.53;;
17145;SDS011;8688;54.444;18.444;2022-08-21T01:04:30;5.20;;;4.70;;
17145;SDS011;8688;54.444;18.444;2022-08-21T01:06:58;5.50;;;4.90;;
17145;SDS011;8688;54.444;18.444;2022-08-21T01:09:25;5.20;;;4.53;;
17145;SDS011;8688;54.444;18.444;2022-08-21T01:11:53;5.13;;;4.63;;
17145;SDS011;8688;54.444;18.444;2022-08-21T01:14:21;5.10;;;4.60;;
17145;SDS011;8688;54.444;18.444;2022-08-21T01:16:50;5.70;;;3.83;;
17145;SDS011;8688;54.444;18.444;2022-08-21T01:19:21;4.68;;;4.18;;
17145;SDS011;8688;54.444;18.444;2022-08-21T01:21:50;5.57;;;4.80;;
17145;SDS011;8688;54.444;18.444;2022-08-21T01:24:19;5.60;;;5.00;;
17145;SDS011;8688;54.444;18.444;2022-08-21T01:26:47;6.07;;;5.35;;
17145;SDS011;8688;54.444;18.444;2022-08-21T01:29:16;6.95;;;6.10;;
17145;SDS011;8688;54.444;18.444;2022-08-21T01:31:52;9.10;;;7.03;;
17145;SDS011;8688;54.444;18.444;2022-08-21T01:34:20;8.02;;;7.20;;
17145;SDS011;8688;54.444;18.444;2022-08-21T01:36:47;8.50;;;7.70;;
17145;SDS011;8688;54.444;18.444;2022-08-21T01:39:16;9.27;;;8.38;;
17145;SDS011;8688;54.444;18.444;2022-08-21T01:41:44;9.60;;;8.60;;
17145;SDS011;8688;54.444;18.444;2022-08-21T01:44:12;9.02;;;8.13;;
17145;SDS011;8688;54.444;18.444;2022-08-21T01:46:39;9.77;;;8.77;;
17145;SDS011;8688;54.444;18.444;2022-08-21T01:49:07;9.40;;;8.30;;
17145;SDS011;8688;54.444;18.444;2022-08-21T01:51:34;9.65;;;8.65;;
17145;SDS011;8688;54.444;18.444;2022-08-21T01:54:03;10.77;;;9.18;;
17145;SDS011;8688;54.444;18.444;2022-08-21T01:56:35;10.80;;;9.68;;
17145;SDS011;8688;54.444;18.444;2022-08-21T01:59:04;12.20;;;9.82;;
17145;SDS011;8688;54.444;18.444;2022-08-21T02:01:32;11.27;;;10.13;;
17145;SDS011;8688;54.444;18.444;2022-08-21T02:03:59;11.00;;;9.90;;
17145;SDS011;8688;54.444;18.444;2022-08-21T02:06:26;10.15;;;9.07;;
17145;SDS011;8688;54.444;18.444;2022-08-21T02:08:54;10.15;;;8.73;;
17145;SDS011;8688;54.444;18.444;2022-08-21T02:11:23;11.13;;;8.75;;
17145;SDS011;8688;54.444;18.444;2022-08-21T02:13:50;10.77;;;9.43;;
17145;SDS011;8688;54.444;18.444;2022-08-21T02:16:18;10.60;;;9.18;;
17145;SDS011;8688;54.444;18.444;2022-08-21T02:18:45;11.52;;;9.70;;
17145;SDS011;8688;54.444;18.444;2022-08-21T02:21:13;11.32;;;9.10;;
17145;SDS011;8688;54.444;18.444;2022-08-21T02:23:40;9.73;;;8.73;;
17145;SDS011;8688;54.444;18.444;2022-08-21T02:26:08;10.15;;;8.88;;
17145;SDS011;8688;54.444;18.444;2022-08-21T02:28:37;10.70;;;9.48;;
17145;SDS011;8688;54.444;18.444;2022-08-21T02:31:05;11.65;;;9.63;;
17145;SDS011;8688;54.444;18.444;2022-08-21T02:33:33;11.95;;;9.45;;
17145;SDS011;8688;54.444;18.444;2022-08-21T02:36:01;10.90;;;9.02;;
17145;SDS011;8688;54.444;18.444;2022-08-21T02:38:31;10.55;;;9.05;;
17145;SDS011;8688;54.444;18.444;2022-08-21T02:41:03;11.50;;;9.68;;
17145;SDS011;8688;54.444;18.444;2022-08-21T02:43:33;10.80;;;9.70;;
17145;SDS011;8688;54.444;18.444;2022-08-21T02:46:02;10.93;;;9.73;;
17145;SDS011;8688;54.444;18.444;2022-08-21T02:48:31;11.63;;;10.43;;
17145;SDS011;8688;54.444;18.444;2022-08-21T02:51:00;12.25;;;9.98;;
17145;SDS011;8688;54.444;18.444;2022-08-21T02:53:29;12.73;;;10.55;;
17145;SDS011;8688;54.444;18.444;2022-08-21T02:55:58;13.48;;;10.73;;
17145;SDS011;8688;54.444;18.444;2022-08-21T02:58:28;13.05;;;10.68;;
17145;SDS011;8688;54.444;18.444;2022-08-21T03:00:57;13.27;;;10.55;;
17145;SDS011;8688;54.444;18.444;2022-08-21T03:03:26;12.38;;;10.40;;
17145;SDS011;8688;54.444;18.444;2022-08-21T03:05:54;12.20;;;9.88;;
17145;SDS011;8688;54.444;18.444;2022-08-21T03:08:22;11.30;;;9.70;;
17145;SDS011;8688;54.444;18.444;2022-08-21T03:10:50;11.38;;;9.80;;
17145;SDS011;8688;54.444;18.444;2022-08-21T03:13:18;12.40;;;9.77;;
17145;SDS011;8688;54.444;18.444;2022-08-21T03:15:47;11.35;;;9.52;;
17145;SDS011;8688;54.444;18.444;2022-08-21T03:18:15;11.43;;;9.80;;
17145;SDS011;8688;54.444;18.444;2022-08-21T03:20:44;11.38;;;10.18;;
17145;SDS011;8688;54.444;18.444;2022-08-21T03:23:12;12.77;;;9.93;;
17145;SDS011;8688;54.444;18.444;2022-08-21T03:25:40;11.52;;;9.35;;
17145;SDS011;8688;54.444;18.444;2022-08-21T03:28:09;11.13;;;9.27;;
17145;SDS011;8688;54.444;18.444;2022-08-21T03:30:40;9.85;;;8.35;;
17145;SDS011;8688;54.444;18.444;2022-08-21T03:33:08;12.05;;;9.00;;
17145;SDS011;8688;54.444;18.444;2022-08-21T03:35:36;11.23;;;8.55;;
17145;SDS011;8688;54.444;18.444;2022-08-21T03:38:05;10.23;;;7.80;;
17145;SDS011;8688;54.444;18.444;2022-08-21T03:40:32;11.98;;;8.45;;
17145;SDS011;8688;54.444;18.444;2022-08-21T03:43:00;12.20;;;8.38;;
17145;SDS011;8688;54.444;18.444;2022-08-21T03:45:27;12.25;;;8.77;;
17145;SDS011;8688;54.444;18.444;2022-08-21T03:47:55;15.07;;;9.43;;
17145;SDS011;8688;54.444;18.444;2022-08-21T03:50:25;10.82;;;8.80;;
17145;SDS011;8688;54.444;18.444;2022-08-21T03:52:53;10.50;;;8.80;;
17145;SDS011;8688;54.444;18.444;2022-08-21T03:55:22;10.77;;;9.13;;
17145;SDS011;8688;54.444;18.444;2022-08-21T03:57:50;10.45;;;8.85;;
17145;SDS011;8688;54.444;18.444;2022-08-21T04:00:18;12.68;;;8.88;;
17145;SDS011;8688;54.444;18.444;2022-08-21T04:02:46;12.85;;;9.75;;
17145;SDS011;8688;54.444;18.444;2022-08-21T04:05:14;12.30;;;10.00;;
17145;SDS011;8688;54.444;18.444;2022-08-21T04:07:52;11.85;;;8.88;;
17145;SDS011;8688;54.444;18.444;2022-08-21T04:10:22;10.60;;;8.65;;
17145;SDS011;8688;54.444;18.444;2022-08-21T04:12:51;10.50;;;8.27;;
17145;SDS011;8688;54.444;18.444;2022-08-21T04:15:19;11.57;;;9.02;;
17145;SDS011;8688;54.444;18.444;2022-08-21T04:17:47;13.32;;;8.48;;
17145;SDS011;8688;54.444;18.444;2022-08-21T04:20:14;10.07;;;8.57;;
17145;SDS011;8688;54.444;18.444;2022-08-21T04:22:43;11.95;;;9.57;;
17145;SDS011;8688;54.444;18.444;2022-08-21T04:25:11;13.07;;;8.85;;
17145;SDS011;8688;54.444;18.444;2022-08-21T04:27:40;12.18;;;8.40;;
17145;SDS011;8688;54.444;18.444;2022-08-21T04:30:08;11.82;;;8.55;;
17145;SDS011;8688;54.444;18.444;2022-08-21T04:32:37;11.23;;;9.02;;
17145;SDS011;8688;54.444;18.444;2022-08-21T04:35:09;13.95;;;9.63;;
17145;SDS011;8688;54.444;18.444;2022-08-21T04:37:37;10.82;;;8.60;;
17145;SDS011;8688;54.444;18.444;2022-08-21T04:40:05;11.88;;;8.73;;
17145;SDS011;8688;54.444;18.444;2022-08-21T04:42:40;12.65;;;9.50;;
17145;SDS011;8688;54.444;18.444;2022-08-21T04:45:15;13.82;;;10.43;;
17145;SDS011;8688;54.444;18.444;2022-08-21T04:47:45;15.63;;;9.73;;
17145;SDS011;8688;54.444;18.444;2022-08-21T04:50:13;12.70;;;9.32;;
17145;SDS011;8688;54.444;18.444;2022-08-21T04:52:41;11.93;;;9.10;;
17145;SDS011;8688;54.444;18.444;2022-08-21T04:55:09;11.15;;;9.20;;
17145;SDS011;8688;54.444;18.444;2022-08-21T04:57:37;12.13;;;8.82;;
17145;SDS011;8688;54.444;18.444;2022-08-21T05:00:09;11.45;;;8.50;;
17145;SDS011;8688;54.444;18.444;2022-08-21T05:02:39;10.40;;;7.57;;
17145;SDS011;8688;54.444;18.444;2022-08-21T05:05:07;12.77;;;8.25;;
17145;SDS011;8688;54.444;18.444;2022-08-21T05:07:35;8.80;;;7.32;;
17145;SDS011;8688;54.444;18.444;2022-08-21T05:10:04;7.65;;;6.90;;
17145;SDS011;8688;54.444;18.444;2022-08-21T05:12:34;11.05;;;7.25;;
17145;SDS011;8688;54.444;18.444;2022-08-21T05:15:02;8.55;;;7.05;;
17145;SDS011;8688;54.444;18.444;2022-08-21T05:17:31;8.57;;;6.20;;
17145;SDS011;8688;54.444;18.444;2022-08-21T05:19:59;6.97;;;6.28;;
17145;SDS011;8688;54.444;18.444;2022-08-21T05:22:28;6.68;;;5.97;;
17145;SDS011;8688;54.444;18.444;2022-08-21T05:24:56;6.03;;;5.45;;
17145;SDS011;8688;54.444;18.444;2022-08-21T05:27:23;6.30;;;5.70;;
17145;SDS011;8688;54.444;18.444;2022-08-21T05:29:51;6.47;;;5.53;;
17145;SDS011;8688;54.444;18.444;2022-08-21T05:32:18;7.78;;;5.50;;
17145;SDS011;8688;54.444;18.444;2022-08-21T05:34:47;6.22;;;5.53;;
17145;SDS011;8688;54.444;18.444;2022-08-21T05:37:15;7.00;;;6.30;;
17145;SDS011;8688;54.444;18.444;2022-08-21T05:39:43;6.15;;;5.55;;
17145;SDS011;8688;54.444;18.444;2022-08-21T05:42:10;6.28;;;5.68;;
17145;SDS011;8688;54.444;18.444;2022-08-21T05:44:37;6.35;;;5.75;;
17145;SDS011;8688;54.444;18.444;2022-08-21T05:47:05;7.57;;;6.50;;
17145;SDS011;8688;54.444;18.444;2022-08-21T05:49:33;7.90;;;6.18;;
17145;SDS011;8688;54.444;18.444;2022-08-21T05:52:03;10.52;;;6.65;;
17145;SDS011;8688;54.444;18.444;2022-08-21T05:54:30;6.68;;;5.97;;
17145;SDS011;8688;54.444;18.444;2022-08-21T05:56:58;6.20;;;5.55;;
17145;SDS011;8688;54.444;18.444;2022-08-21T05:59:25;7.15;;;6.43;;
17145;SDS011;8688;54.444;18.444;2022-08-21T06:01:53;6.70;;;6.00;;
17145;SDS011;8688;54.444;18.444;2022-08-21T06:04:20;5.95;;;5.32;;
17145;SDS011;8688;54.444;18.444;2022-08-21T06:06:47;6.25;;;5.63;;
17145;SDS011;8688;54.444;18.444;2022-08-21T06:09:16;6.53;;;5.78;;
17145;SDS011;8688;54.444;18.444;2022-08-21T06:11:44;5.85;;;5.28;;
17145;SDS011;8688;54.444;18.444;2022-08-21T06:14:13;5.13;;;4.63;;
17145;SDS011;8688;54.444;18.444;2022-08-21T06:16:41;7.15;;;4.80;;
17145;SDS011;8688;54.444;18.444;2022-08-21T06:19:09;5.57;;;4.70;;
17145;SDS011;8688;54.444;18.444;2022-08-21T06:21:36;5.32;;;3.55;;
17145;SDS011;8688;54.444;18.444;2022-08-21T06:24:03;4.95;;;4.30;;
17145;SDS011;8688;54.444;18.444;2022-08-21T06:26:33;5.05;;;4.50;;
17145;SDS011;8688;54.444;18.444;2022-08-21T06:29:01;5.78;;;4.65;;
17145;SDS011;8688;54.444;18.444;2022-08-21T06:31:28;4.88;;;4.38;;
17145;SDS011;8688;54.444;18.444;2022-08-21T06:33:55;4.75;;;4.15;;
17145;SDS011;8688;54.444;18.444;2022-08-21T06:36:23;5.85;;;4.30;;
17145;SDS011;8688;54.444;18.444;2022-08-21T06:38:50;5.03;;;4.20;;
17145;SDS011;8688;54.444;18.444;2022-08-21T06:41:18;4.90;;;4.40;;
17145;SDS011;8688;54.444;18.444;2022-08-21T06:43:48;5.45;;;4.60;;
17145;SDS011;8688;54.444;18.444;2022-08-21T06:46:15;5.82;;;5.10;;
17145;SDS011;8688;54.444;18.444;2022-08-21T06:48:43;6.95;;;4.97;;
17145;SDS011;8688;54.444;18.444;2022-08-21T06:51:10;5.03;;;4.53;;
17145;SDS011;8688;54.444;18.444;2022-08-21T06:53:38;5.93;;;5.03;;
17145;SDS011;8688;54.444;18.444;2022-08-21T06:56:05;5.35;;;4.32;;
17145;SDS011;8688;54.444;18.444;2022-08-21T06:58:33;6.00;;;4.85;;
17145;SDS011;8688;54.444;18.444;2022-08-21T07:01:02;5.03;;;4.53;;
17145;SDS011;8688;54.444;18.444;2022-08-21T07:03:33;6.70;;;5.20;;
17145;SDS011;8688;54.444;18.444;2022-08-21T07:06:03;5.82;;;5.13;;
17145;SDS011;8688;54.444;18.444;2022-08-21T07:08:32;5.18;;;4.68;;
17145;SDS011;8688;54.444;18.444;2022-08-21T07:11:01;6.93;;;5.13;;
17145;SDS011;8688;54.444;18.444;2022-08-21T07:13:30;5.32;;;4.40;;
17145;SDS011;8688;54.444;18.444;2022-08-21T07:15:58;7.10;;;5.18;;
17145;SDS011;8688;54.444;18.444;2022-08-21T07:18:26;5.25;;;4.63;;
17145;SDS011;8688;54.444;18.444;2022-08-21T07:20:54;5.72;;;4.47;;
17145;SDS011;8688;54.444;18.444;2022-08-21T07:23:22;8.02;;;4.90;;
17145;SDS011;8688;54.444;18.444;2022-08-21T07:25:53;5.85;;;4.05;;
17145;SDS011;8688;54.444;18.444;2022-08-21T07:28:21;6.68;;;4.32;;
17145;SDS011;8688;54.444;18.444;2022-08-21T07:30:50;5.68;;;3.75;;
17145;SDS011;8688;54.444;18.444;2022-08-21T07:33:18;5.15;;;3.40;;
17145;SDS011;8688;54.444;18.444;2022-08-21T07:35:47;5.82;;;3.80;;
17145;SDS011;8688;54.444;18.444;2022-08-21T07:38:14;6.28;;;3.72;;
17145;SDS011;8688;54.444;18.444;2022-08-21T07:40:43;6.10;;;3.90;;
17145;SDS011;8688;54.444;18.444;2022-08-21T07:43:11;5.38;;;3.72;;
17145;SDS011;8688;54.444;18.444;2022-08-21T07:45:38;8.20;;;4.15;;
17145;SDS011;8688;54.444;18.444;2022-08-21T07:48:06;6.20;;;3.85;;
17145;SDS011;8688;54.444;18.444;2022-08-21T07:50:33;5.63;;;3.97;;
17145;SDS011;8688;54.444;18.444;2022-08-21T07:53:02;4.72;;;4.00;;
17145;SDS011;8688;54.444;18.444;2022-08-21T07:55:29;4.72;;;4.22;;
17145;SDS011;8688;54.444;18.444;2022-08-21T07:57:57;6.95;;;4.50;;
17145;SDS011;8688;54.444;18.444;2022-08-21T08:00:25;5.00;;;4.20;;
17145;SDS011;8688;54.444;18.444;2022-08-21T08:02:54;5.78;;;4.57;;
17145;SDS011;8688;54.444;18.444;2022-08-21T08:05:23;5.90;;;4.45;;
17145;SDS011;8688;54.444;18.444;2022-08-21T08:07:53;5.03;;;4.50;;
17145;SDS011;8688;54.444;18.444;2022-08-21T08:10:23;7.20;;;4.68;;
17145;SDS011;8688;54.444;18.444;2022-08-21T08:12:51;6.20;;;4.43;;
17145;SDS011;8688;54.444;18.444;2022-08-21T08:15:21;5.55;;;4.40;;
17145;SDS011;8688;54.444;18.444;2022-08-21T08:17:51;5.22;;;4.28;;
17145;SDS011;8688;54.444;18.444;2022-08-21T08:20:19;5.75;;;4.40;;
17145;SDS011;8688;54.444;18.444;2022-08-21T08:22:48;8.32;;;4.65;;
17145;SDS011;8688;54.444;18.444;2022-08-21T08:25:16;5.90;;;4.85;;
17145;SDS011;8688;54.444;18.444;2022-08-21T08:27:46;5.60;;;4.22;;
17145;SDS011;8688;54.444;18.444;2022-08-21T08:30:15;6.75;;;4.65;;
17145;SDS011;8688;54.444;18.444;2022-08-21T08:32:43;7.07;;;5.00;;
17145;SDS011;8688;54.444;18.444;2022-08-21T08:35:11;7.45;;;5.20;;
17145;SDS011;8688;54.444;18.444;2022-08-21T08:37:39;6.90;;;4.80;;
17145;SDS011;8688;54.444;18.444;2022-08-21T08:40:10;6.43;;;5.07;;
17145;SDS011;8688;54.444;18.444;2022-08-21T08:42:40;6.57;;;4.78;;
17145;SDS011;8688;54.444;18.444;2022-08-21T08:45:11;8.00;;;4.75;;
17145;SDS011;8688;54.444;18.444;2022-08-21T08:47:41;6.25;;;4.57;;
17145;SDS011;8688;54.444;18.444;2022-08-21T08:50:12;5.20;;;4.40;;
17145;SDS011;8688;54.444;18.444;2022-08-21T08:52:47;6.45;;;4.22;;
17145;SDS011;8688;54.444;18.444;2022-08-21T08:55:19;5.78;;;4.60;;
17145;SDS011;8688;54.444;18.444;2022-08-21T08:57:50;7.07;;;4.40;;
17145;SDS011;8688;54.444;18.444;2022-08-21T09:00:21;7.20;;;4.55;;
17145;SDS011;8688;54.444;18.444;2022-08-21T09:02:51;4.80;;;4.30;;
17145;SDS011;8688;54.444;18.444;2022-08-21T09:05:22;7.05;;;4.25;;
17145;SDS011;8688;54.444;18.444;2022-08-21T09:08:07;8.40;;;4.45;;
17145;SDS011;8688;54.444;18.444;2022-08-21T09:10:57;8.25;;;4.22;;
17145;SDS011;8688;54.444;18.444;2022-08-21T09:13:36;5.45;;;3.88;;
17145;SDS011;8688;54.444;18.444;2022-08-21T09:16:18;4.80;;;4.03;;
17145;SDS011;8688;54.444;18.444;2022-08-21T09:18:52;5.80;;;3.85;;
17145;SDS011;8688;54.444;18.444;2022-08-21T09:21:27;5.55;;;4.10;;
17145;SDS011;8688;54.444;18.444;2022-08-21T09:24:02;5.07;;;3.47;;
17145;SDS011;8688;54.444;18.444;2022-08-21T09:26:43;4.00;;;3.40;;
17145;SDS011;8688;54.444;18.444;2022-08-21T09:29:20;6.10;;;3.90;;
17145;SDS011;8688;54.444;18.444;2022-08-21T09:31:52;4.95;;;3.58;;
17145;SDS011;8688;54.444;18.444;2022-08-21T09:34:24;3.85;;;3.33;;
17145;SDS011;8688;54.444;18.444;2022-08-21T09:36:52;7.57;;;3.78;;
17145;SDS011;8688;54.444;18.444;2022-08-21T09:39:23;4.28;;;3.45;;
17145;SDS011;8688;54.444;18.444;2022-08-21T09:41:56;4.60;;;3.35;;
17145;SDS011;8688;54.444;18.444;2022-08-21T09:44:26;6.20;;;3.42;;
17145;SDS011;8688;54.444;18.444;2022-08-21T09:46:56;6.03;;;3.28;;
17145;SDS011;8688;54.444;18.444;2022-08-21T09:49:27;5.78;;;3.30;;
17145;SDS011;8688;54.444;18.444;2022-08-21T09:51:55;4.38;;;3.22;;
17145;SDS011;8688;54.444;18.444;2022-08-21T09:54:26;4.13;;;3.38;;
17145;SDS011;8688;54.444;18.444;2022-08-21T09:56:56;6.38;;;3.33;;
17145;SDS011;8688;54.444;18.444;2022-08-21T09:59:43;5.20;;;3.65;;
17145;SDS011;8688;54.444;18.444;2022-08-21T10:02:26;6.45;;;3.33;;
17145;SDS011;8688;54.444;18.444;2022-08-21T10:04:55;4.57;;;3.35;;
17145;SDS011;8688;54.444;18.444;2022-08-21T10:07:28;5.57;;;3.35;;
17145;SDS011;8688;54.444;18.444;2022-08-21T10:09:58;5.45;;;3.70;;
17145;SDS011;8688;54.444;18.444;2022-08-21T10:12:33;5.43;;;3.80;;
17145;SDS011;8688;54.444;18.444;2022-08-21T10:15:10;5.70;;;3.50;;
17145;SDS011;8688;54.444;18.444;2022-08-21T10:17:49;7.57;;;3.85;;
17145;SDS011;8688;54.444;18.444;2022-08-21T10:20:27;5.63;;;4.00;;
17145;SDS011;8688;54.444;18.444;2022-08-21T10:23:05;8.48;;;5.78;;
17145;SDS011;8688;54.444;18.444;2022-08-21T10:25:47;8.40;;;4.85;;
17145;SDS011;8688;54.444;18.444;2022-08-21T10:28:21;6.63;;;3.08;;
17145;SDS011;8688;54.444;18.444;2022-08-21T10:30:57;5.10;;;2.97;;
17145;SDS011;8688;54.444;18.444;2022-08-21T10:33:33;8.57;;;4.03;;
17145;SDS011;8688;54.444;18.444;2022-08-21T10:36:11;6.03;;;3.53;;
17145;SDS011;8688;54.444;18.444;2022-08-21T10:39:03;5.00;;;3.35;;
17145;SDS011;8688;54.444;18.444;2022-08-21T10:41:41;4.85;;;2.90;;
17145;SDS011;8688;54.444;18.444;2022-08-21T10:44:23;8.68;;;3.20;;
17145;SDS011;8688;54.444;18.444;2022-08-21T10:47:01;7.38;;;3.30;;
17145;SDS011;8688;54.444;18.444;2022-08-21T10:49:37;5.25;;;3.40;;
17145;SDS011;8688;54.444;18.444;2022-08-21T10:52:15;4.07;;;3.13;;
17145;SDS011;8688;54.444;18.444;2022-08-21T10:55:02;4.47;;;3.50;;
17145;SDS011;8688;54.444;18.444;2022-08-21T10:57:37;8.18;;;3.40;;
17145;SDS011;8688;54.444;18.444;2022-08-21T11:00:11;7.57;;;4.03;;
17145;SDS011;8688;54.444;18.444;2022-08-21T11:02:47;6.50;;;3.22;;
17145;SDS011;8688;54.444;18.444;2022-08-21T11:05:21;5.03;;;3.20;;
17145;SDS011;8688;54.444;18.444;2022-08-21T11:07:55;4.55;;;3.25;;
17145;SDS011;8688;54.444;18.444;2022-08-21T11:10:29;4.43;;;3.13;;
17145;SDS011;8688;54.444;18.444;2022-08-21T11:13:05;6.80;;;3.58;;
17145;SDS011;8688;54.444;18.444;2022-08-21T11:15:40;4.28;;;2.88;;
17145;SDS011;8688;54.444;18.444;2022-08-21T11:18:20;4.82;;;2.83;;
17145;SDS011;8688;54.444;18.444;2022-08-21T11:20:54;5.03;;;2.55;;
17145;SDS011;8688;54.444;18.444;2022-08-21T11:23:29;3.90;;;2.53;;
17145;SDS011;8688;54.444;18.444;2022-08-21T11:26:05;4.32;;;2.70;;
17145;SDS011;8688;54.444;18.444;2022-08-21T11:28:40;2.70;;;2.38;;
17145;SDS011;8688;54.444;18.444;2022-08-21T11:31:15;5.50;;;2.50;;
17145;SDS011;8688;54.444;18.444;2022-08-21T11:33:56;4.32;;;2.40;;
17145;SDS011;8688;54.444;18.444;2022-08-21T11:36:41;3.22;;;2.10;;
17145;SDS011;8688;54.444;18.444;2022-08-21T11:39:16;4.20;;;2.20;;
17145;SDS011;8688;54.444;18.444;2022-08-21T11:41:54;3.85;;;2.05;;
17145;SDS011;8688;54.444;18.444;2022-08-21T11:44:29;5.07;;;2.35;;
17145;SDS011;8688;54.444;18.444;2022-08-21T11:47:10;4.45;;;2.20;;
17145;SDS011;8688;54.444;18.444;2022-08-21T11:49:49;5.22;;;2.25;;
17145;SDS011;8688;54.444;18.444;2022-08-21T11:52:25;4.40;;;2.10;;
17145;SDS011;8688;54.444;18.444;2022-08-21T11:54:57;3.15;;;2.05;;
17145;SDS011;8688;54.444;18.444;2022-08-21T11:57:30;7.07;;;2.38;;
17145;SDS011;8688;54.444;18.444;2022-08-21T12:00:04;3.85;;;2.00;;
17145;SDS011;8688;54.444;18.444;2022-08-21T12:02:34;5.18;;;2.30;;
17145;SDS011;8688;54.444;18.444;2022-08-21T12:05:05;4.75;;;2.00;;
17145;SDS011;8688;54.444;18.444;2022-08-21T12:07:38;5.63;;;2.47;;
17145;SDS011;8688;54.444;18.444;2022-08-21T12:10:09;4.63;;;2.30;;
17145;SDS011;8688;54.444;18.444;2022-08-21T12:12:40;4.10;;;2.22;;
17145;SDS011;8688;54.444;18.444;2022-08-21T12:15:17;3.60;;;2.30;;
17145;SDS011;8688;54.444;18.444;2022-08-21T12:17:54;5.72;;;2.38;;
17145;SDS011;8688;54.444;18.444;2022-08-21T12:20:33;5.15;;;2.35;;
17145;SDS011;8688;54.444;18.444;2022-08-21T12:23:19;3.55;;;2.20;;
17145;SDS011;8688;54.444;18.444;2022-08-21T12:26:09;6.82;;;2.53;;
17145;SDS011;8688;54.444;18.444;2022-08-21T12:28:45;3.13;;;2.17;;
17145;SDS011;8688;54.444;18.444;2022-08-21T12:33:58;3.45;;;1.55;;
17145;SDS011;8688;54.444;18.444;2022-08-21T12:36:33;3.25;;;1.75;;
17145;SDS011;8688;54.444;18.444;2022-08-21T12:39:12;5.13;;;2.00;;
17145;SDS011;8688;54.444;18.444;2022-08-21T12:41:47;2.28;;;1.67;;
17145;SDS011;8688;54.444;18.444;2022-08-21T12:44:20;2.63;;;1.40;;
17145;SDS011;8688;54.444;18.444;2022-08-21T12:46:53;2.85;;;1.63;;
17145;SDS011;8688;54.444;18.444;2022-08-21T12:49:26;3.35;;;1.63;;
17145;SDS011;8688;54.444;18.444;2022-08-21T12:52:00;4.45;;;1.70;;
17145;SDS011;8688;54.444;18.444;2022-08-21T12:54:38;4.65;;;1.85;;
17145;SDS011;8688;54.444;18.444;2022-08-21T12:57:07;5.22;;;2.22;;
17145;SDS011;8688;54.444;18.444;2022-08-21T12:59:43;7.75;;;2.20;;
17145;SDS011;8688;54.444;18.444;2022-08-21T13:02:13;5.78;;;2.22;;
17145;SDS011;8688;54.444;18.444;2022-08-21T13:04:45;5.95;;;2.50;;
17145;SDS011;8688;54.444;18.444;2022-08-21T13:07:15;4.82;;;2.55;;
17145;SDS011;8688;54.444;18.444;2022-08-21T13:09:50;4.38;;;2.22;;
17145;SDS011;8688;54.444;18.444;2022-08-21T13:12:21;6.05;;;2.45;;
17145;SDS011;8688;54.444;18.444;2022-08-21T13:14:50;5.97;;;2.15;;
17145;SDS011;8688;54.444;18.444;2022-08-21T13:17:22;4.10;;;2.17;;
17145;SDS011;8688;54.444;18.444;2022-08-21T13:19:56;2.72;;;1.98;;
17145;SDS011;8688;54.444;18.444;2022-08-21T13:22:25;3.13;;;2.10;;
17145;SDS011;8688;54.444;18.444;2022-08-21T13:24:54;3.85;;;2.40;;
17145;SDS011;8688;54.444;18.444;2022-08-21T13:27:24;4.28;;;2.40;;
17145;SDS011;8688;54.444;18.444;2022-08-21T13:30:03;6.53;;;2.47;;
17145;SDS011;8688;54.444;18.444;2022-08-21T13:32:37;3.38;;;1.95;;
17145;SDS011;8688;54.444;18.444;2022-08-21T13:35:11;5.07;;;2.40;;
17145;SDS011;8688;54.444;18.444;2022-08-21T13:37:42;5.03;;;2.17;;
17145;SDS011;8688;54.444;18.444;2022-08-21T13:40:14;5.25;;;2.58;;
17145;SDS011;8688;54.444;18.444;2022-08-21T13:42:52;6.80;;;2.72;;
17145;SDS011;8688;54.444;18.444;2022-08-21T13:45:23;4.45;;;2.47;;
17145;SDS011;8688;54.444;18.444;2022-08-21T13:47:52;7.32;;;2.40;;
17145;SDS011;8688;54.444;18.444;2022-08-21T13:50:21;6.93;;;2.17;;
17145;SDS011;8688;54.444;18.444;2022-08-21T13:52:56;5.57;;;1.95;;
17145;SDS011;8688;54.444;18.444;2022-08-21T13:55:35;6.15;;;2.10;;
17145;SDS011;8688;54.444;18.444;2022-08-21T13:58:06;4.00;;;2.00;;
17145;SDS011;8688;54.444;18.444;2022-08-21T14:00:34;6.00;;;2.15;;
17145;SDS011;8688;54.444;18.444;2022-08-21T14:03:10;4.32;;;2.17;;
17145;SDS011;8688;54.444;18.444;2022-08-21T14:05:49;5.60;;;2.10;;
17145;SDS011;8688;54.444;18.444;2022-08-21T14:08:20;4.10;;;1.80;;
17145;SDS011;8688;54.444;18.444;2022-08-21T14:10:53;4.25;;;2.10;;
17145;SDS011;8688;54.444;18.444;2022-08-21T14:13:26;5.75;;;2.75;;
17145;SDS011;8688;54.444;18.444;2022-08-21T14:16:00;5.18;;;2.20;;
17145;SDS011;8688;54.444;18.444;2022-08-21T14:18:28;4.30;;;2.30;;
17145;SDS011;8688;54.444;18.444;2022-08-21T14:21:06;6.90;;;2.10;;
17145;SDS011;8688;54.444;18.444;2022-08-21T14:23:35;3.78;;;2.20;;
17145;SDS011;8688;54.444;18.444;2022-08-21T14:26:05;5.45;;;1.80;;
17145;SDS011;8688;54.444;18.444;2022-08-21T14:28:34;2.38;;;1.50;;
17145;SDS011;8688;54.444;18.444;2022-08-21T14:31:12;4.32;;;1.80;;
17145;SDS011;8688;54.444;18.444;2022-08-21T14:33:41;4.70;;;1.80;;
17145;SDS011;8688;54.444;18.444;2022-08-21T14:36:09;3.58;;;1.75;;
17145;SDS011;8688;54.444;18.444;2022-08-21T14:38:38;3.45;;;1.70;;
17145;SDS011;8688;54.444;18.444;2022-08-21T14:41:11;4.65;;;1.65;;
17145;SDS011;8688;54.444;18.444;2022-08-21T14:43:43;2.50;;;1.45;;
17145;SDS011;8688;54.444;18.444;2022-08-21T14:46:13;5.00;;;2.20;;
17145;SDS011;8688;54.444;18.444;2022-08-21T14:48:47;2.72;;;1.80;;
17145;SDS011;8688;54.444;18.444;2022-08-21T14:51:16;6.80;;;2.17;;
17145;SDS011;8688;54.444;18.444;2022-08-21T14:53:43;6.72;;;2.42;;
17145;SDS011;8688;54.444;18.444;2022-08-21T14:56:13;4.55;;;2.35;;
17145;SDS011;8688;54.444;18.444;2022-08-21T14:58:41;5.63;;;1.88;;
17145;SDS011;8688;54.444;18.444;2022-08-21T15:01:12;7.18;;;2.10;;
17145;SDS011;8688;54.444;18.444;2022-08-21T15:03:40;4.45;;;1.90;;
17145;SDS011;8688;54.444;18.444;2022-08-21T15:06:08;5.00;;;2.45;;
17145;SDS011;8688;54.444;18.444;2022-08-21T15:08:36;5.25;;;2.20;;
17145;SDS011;8688;54.444;18.444;2022-08-21T15:11:04;3.47;;;1.92;;